sensor_id;sensor_type;location;lat;lon;timestamp;temperature;humidity
53645;DHT22;39547;45.554;12.068;2024-02-26T00:05:27;7.30;91.60
53645;DHT22;39547;45.554;12.068;2024-02-26T00:11:28;7.30;91.60
53645;DHT22;39547;45.554;12.068;2024-02-26T00:17:30;7.30;91.50
53645;DHT22;39547;45.554;12.068;2024-02-26T00:23:32;7.20;91.50
53645;DHT22;39547;45.554;12.068;2024-02-26T00:29:33;7.20;91.50
53645;DHT22;39547;45.554;12.068;2024-02-26T00:35:35;7.20;91.70
53645;DHT22;39547;45.554;12.068;2024-02-26T00:41:42;7.20;91.70
53645;DHT22;39547;45.554;12.068;2024-02-26T00:47:43;7.20;91.60
53645;DHT22;39547;45.554;12.068;2024-02-26T00:53:46;7.10;91.40
53645;DHT22;39547;45.554;12.068;2024-02-26T00:59:48;7.00;91.50
53645;DHT22;39547;45.554;12.068;2024-02-26T01:05:49;6.90;91.60
53645;DHT22;39547;45.554;12.068;2024-02-26T01:11:51;6.90;91.70
53645;DHT22;39547;45.554;12.068;2024-02-26T01:17:52;6.90;91.70
53645;DHT22;39547;45.554;12.068;2024-02-26T01:23:54;6.90;91.60
53645;DHT22;39547;45.554;12.068;2024-02-26T01:29:55;6.80;91.60
53645;DHT22;39547;45.554;12.068;2024-02-26T01:35:57;6.70;91.60
53645;DHT22;39547;45.554;12.068;2024-02-26T01:41:58;6.70;91.70
53645;DHT22;39547;45.554;12.068;2024-02-26T01:48:00;6.70;91.60
53645;DHT22;39547;45.554;12.068;2024-02-26T01:54:03;6.70;91.80
53645;DHT22;39547;45.554;12.068;2024-02-26T02:00:06;6.70;91.90
53645;DHT22;39547;45.554;12.068;2024-02-26T02:06:10;6.70;92.10
53645;DHT22;39547;45.554;12.068;2024-02-26T02:12:12;6.80;92.20
53645;DHT22;39547;45.554;12.068;2024-02-26T02:18:14;6.80;92.10
53645;DHT22;39547;45.554;12.068;2024-02-26T02:24:15;6.90;92.20
53645;DHT22;39547;45.554;12.068;2024-02-26T02:30:17;6.90;92.10
53645;DHT22;39547;45.554;12.068;2024-02-26T02:36:19;7.00;92.10
53645;DHT22;39547;45.554;12.068;2024-02-26T02:42:20;7.00;91.90
53645;DHT22;39547;45.554;12.068;2024-02-26T02:48:22;7.00;91.70
53645;DHT22;39547;45.554;12.068;2024-02-26T02:54:23;6.90;91.50
53645;DHT22;39547;45.554;12.068;2024-02-26T03:00:25;6.80;91.50
53645;DHT22;39547;45.554;12.068;2024-02-26T03:06:26;6.70;91.60
53645;DHT22;39547;45.554;12.068;2024-02-26T03:12:30;6.60;91.60
53645;DHT22;39547;45.554;12.068;2024-02-26T03:18:31;6.60;91.60
53645;DHT22;39547;45.554;12.068;2024-02-26T03:24:33;6.60;91.70
53645;DHT22;39547;45.554;12.068;2024-02-26T03:30:34;6.50;91.70
53645;DHT22;39547;45.554;12.068;2024-02-26T03:36:36;6.50;91.80
53645;DHT22;39547;45.554;12.068;2024-02-26T03:42:37;6.50;91.80
53645;DHT22;39547;45.554;12.068;2024-02-26T03:48:41;6.50;91.80
53645;DHT22;39547;45.554;12.068;2024-02-26T03:54:42;6.40;91.90
53645;DHT22;39547;45.554;12.068;2024-02-26T04:00:44;6.50;91.90
53645;DHT22;39547;45.554;12.068;2024-02-26T04:06:46;6.50;92.00
53645;DHT22;39547;45.554;12.068;2024-02-26T04:12:48;6.40;92.00
53645;DHT22;39547;45.554;12.068;2024-02-26T04:18:49;6.40;92.00
53645;DHT22;39547;45.554;12.068;2024-02-26T04:24:50;6.40;92.00
53645;DHT22;39547;45.554;12.068;2024-02-26T04:30:52;6.40;92.00
53645;DHT22;39547;45.554;12.068;2024-02-26T04:36:53;6.40;92.00
53645;DHT22;39547;45.554;12.068;2024-02-26T04:42:55;6.30;92.10
53645;DHT22;39547;45.554;12.068;2024-02-26T04:48:56;6.40;92.10
53645;DHT22;39547;45.554;12.068;2024-02-26T04:54:58;6.30;92.10
53645;DHT22;39547;45.554;12.068;2024-02-26T05:01:01;6.40;92.20
53645;DHT22;39547;45.554;12.068;2024-02-26T05:07:02;6.40;92.10
53645;DHT22;39547;45.554;12.068;2024-02-26T05:13:05;6.40;92.00
53645;DHT22;39547;45.554;12.068;2024-02-26T05:19:07;6.30;92.10
53645;DHT22;39547;45.554;12.068;2024-02-26T05:25:08;6.30;92.10
53645;DHT22;39547;45.554;12.068;2024-02-26T05:31:13;6.20;92.10
53645;DHT22;39547;45.554;12.068;2024-02-26T05:37:15;6.20;92.20
53645;DHT22;39547;45.554;12.068;2024-02-26T05:43:16;6.20;92.40
53645;DHT22;39547;45.554;12.068;2024-02-26T05:49:18;6.30;92.50
53645;DHT22;39547;45.554;12.068;2024-02-26T05:55:20;6.30;92.40
53645;DHT22;39547;45.554;12.068;2024-02-26T06:01:21;6.40;92.50
53645;DHT22;39547;45.554;12.068;2024-02-26T06:07:23;6.40;92.50
53645;DHT22;39547;45.554;12.068;2024-02-26T06:13:25;6.40;92.50
53645;DHT22;39547;45.554;12.068;2024-02-26T06:19:26;6.40;92.50
53645;DHT22;39547;45.554;12.068;2024-02-26T06:25:27;6.50;92.60
53645;DHT22;39547;45.554;12.068;2024-02-26T06:31:29;6.60;92.80
53645;DHT22;39547;45.554;12.068;2024-02-26T06:37:30;6.70;92.80
53645;DHT22;39547;45.554;12.068;2024-02-26T06:43:33;6.70;92.70
53645;DHT22;39547;45.554;12.068;2024-02-26T06:49:35;6.80;92.70
53645;DHT22;39547;45.554;12.068;2024-02-26T06:55:36;6.90;92.80
53645;DHT22;39547;45.554;12.068;2024-02-26T07:01:41;7.00;92.90
53645;DHT22;39547;45.554;12.068;2024-02-26T07:07:43;7.20;92.90
53645;DHT22;39547;45.554;12.068;2024-02-26T07:13:48;7.30;92.90
53645;DHT22;39547;45.554;12.068;2024-02-26T07:19:51;7.40;92.90
53645;DHT22;39547;45.554;12.068;2024-02-26T07:25:53;7.60;92.80
53645;DHT22;39547;45.554;12.068;2024-02-26T07:31:56;7.70;92.80
53645;DHT22;39547;45.554;12.068;2024-02-26T07:37:57;7.80;92.70
53645;DHT22;39547;45.554;12.068;2024-02-26T07:44:00;7.90;92.70
53645;DHT22;39547;45.554;12.068;2024-02-26T07:50:01;8.00;92.60
53645;DHT22;39547;45.554;12.068;2024-02-26T07:56:03;8.10;92.60
53645;DHT22;39547;45.554;12.068;2024-02-26T08:02:05;8.20;92.50
53645;DHT22;39547;45.554;12.068;2024-02-26T08:08:07;8.20;92.30
53645;DHT22;39547;45.554;12.068;2024-02-26T08:14:08;8.30;92.30
53645;DHT22;39547;45.554;12.068;2024-02-26T08:20:10;8.40;92.30
53645;DHT22;39547;45.554;12.068;2024-02-26T08:26:12;8.60;92.40
53645;DHT22;39547;45.554;12.068;2024-02-26T08:32:14;8.70;92.40
53645;DHT22;39547;45.554;12.068;2024-02-26T08:38:16;8.80;92.40
53645;DHT22;39547;45.554;12.068;2024-02-26T08:44:18;8.90;92.20
53645;DHT22;39547;45.554;12.068;2024-02-26T08:50:19;9.00;92.20
53645;DHT22;39547;45.554;12.068;2024-02-26T08:56:21;9.10;92.20
53645;DHT22;39547;45.554;12.068;2024-02-26T09:02:22;9.10;92.20
53645;DHT22;39547;45.554;12.068;2024-02-26T09:08:24;9.20;92.30
53645;DHT22;39547;45.554;12.068;2024-02-26T09:14:25;9.50;92.40
53645;DHT22;39547;45.554;12.068;2024-02-26T09:20:28;9.60;92.40
53645;DHT22;39547;45.554;12.068;2024-02-26T09:26:29;9.70;92.30
53645;DHT22;39547;45.554;12.068;2024-02-26T09:32:32;9.80;92.20
53645;DHT22;39547;45.554;12.068;2024-02-26T09:38:34;10.00;92.00
53645;DHT22;39547;45.554;12.068;2024-02-26T09:44:40;10.10;91.70
53645;DHT22;39547;45.554;12.068;2024-02-26T09:50:43;10.30;91.60
53645;DHT22;39547;45.554;12.068;2024-02-26T09:56:50;10.50;91.10
53645;DHT22;39547;45.554;12.068;2024-02-26T10:02:54;10.70;91.10
53645;DHT22;39547;45.554;12.068;2024-02-26T10:08:58;10.70;90.60
53645;DHT22;39547;45.554;12.068;2024-02-26T10:15:00;10.90;91.00
53645;DHT22;39547;45.554;12.068;2024-02-26T10:21:02;11.10;90.70
53645;DHT22;39547;45.554;12.068;2024-02-26T10:27:05;11.20;90.60
53645;DHT22;39547;45.554;12.068;2024-02-26T10:33:07;11.50;90.40
53645;DHT22;39547;45.554;12.068;2024-02-26T10:39:09;11.80;90.30
53645;DHT22;39547;45.554;12.068;2024-02-26T10:45:12;12.00;90.00
53645;DHT22;39547;45.554;12.068;2024-02-26T10:51:14;12.20;89.60
53645;DHT22;39547;45.554;12.068;2024-02-26T10:57:19;12.10;89.00
53645;DHT22;39547;45.554;12.068;2024-02-26T11:03:21;12.00;89.10
53645;DHT22;39547;45.554;12.068;2024-02-26T11:09:24;11.90;89.10
53645;DHT22;39547;45.554;12.068;2024-02-26T11:15:28;11.80;89.30
53645;DHT22;39547;45.554;12.068;2024-02-26T11:21:31;11.70;89.00
53645;DHT22;39547;45.554;12.068;2024-02-26T11:27:43;11.80;89.60
53645;DHT22;39547;45.554;12.068;2024-02-26T11:33:47;11.80;89.30
53645;DHT22;39547;45.554;12.068;2024-02-26T11:39:48;11.90;89.60
53645;DHT22;39547;45.554;12.068;2024-02-26T11:45:52;12.00;89.40
53645;DHT22;39547;45.554;12.068;2024-02-26T11:51:54;12.10;88.50
53645;DHT22;39547;45.554;12.068;2024-02-26T11:57:56;12.20;88.60
53645;DHT22;39547;45.554;12.068;2024-02-26T12:03:58;12.20;88.40
53645;DHT22;39547;45.554;12.068;2024-02-26T12:10:41;12.30;88.00
53645;DHT22;39547;45.554;12.068;2024-02-26T12:16:44;12.20;88.20
53645;DHT22;39547;45.554;12.068;2024-02-26T12:22:46;12.20;87.50
53645;DHT22;39547;45.554;12.068;2024-02-26T12:28:50;12.20;88.00
53645;DHT22;39547;45.554;12.068;2024-02-26T12:34:54;12.20;87.60
53645;DHT22;39547;45.554;12.068;2024-02-26T12:40:55;12.30;87.70
53645;DHT22;39547;45.554;12.068;2024-02-26T12:47:04;12.40;87.10
53645;DHT22;39547;45.554;12.068;2024-02-26T12:53:05;12.40;85.50
53645;DHT22;39547;45.554;12.068;2024-02-26T12:59:07;12.20;85.30
53645;DHT22;39547;45.554;12.068;2024-02-26T13:05:12;12.00;85.50
53645;DHT22;39547;45.554;12.068;2024-02-26T13:11:15;11.90;86.40
53645;DHT22;39547;45.554;12.068;2024-02-26T13:17:21;12.10;86.90
53645;DHT22;39547;45.554;12.068;2024-02-26T13:23:26;12.20;87.00
53645;DHT22;39547;45.554;12.068;2024-02-26T13:29:27;12.40;87.00
53645;DHT22;39547;45.554;12.068;2024-02-26T13:35:29;12.50;85.30
53645;DHT22;39547;45.554;12.068;2024-02-26T13:41:32;12.50;85.40
53645;DHT22;39547;45.554;12.068;2024-02-26T13:47:34;12.60;85.50
53645;DHT22;39547;45.554;12.068;2024-02-26T13:53:36;12.70;85.20
53645;DHT22;39547;45.554;12.068;2024-02-26T13:59:37;12.70;85.10
53645;DHT22;39547;45.554;12.068;2024-02-26T14:05:43;12.60;85.00
53645;DHT22;39547;45.554;12.068;2024-02-26T14:11:48;12.50;84.50
53645;DHT22;39547;45.554;12.068;2024-02-26T14:17:50;12.30;84.10
53645;DHT22;39547;45.554;12.068;2024-02-26T14:23:54;12.20;83.30
53645;DHT22;39547;45.554;12.068;2024-02-26T14:29:56;12.10;83.70
53645;DHT22;39547;45.554;12.068;2024-02-26T14:35:58;11.90;84.00
53645;DHT22;39547;45.554;12.068;2024-02-26T14:42:00;11.70;85.00
53645;DHT22;39547;45.554;12.068;2024-02-26T14:48:01;11.50;85.80
53645;DHT22;39547;45.554;12.068;2024-02-26T14:54:03;11.30;86.30
53645;DHT22;39547;45.554;12.068;2024-02-26T15:00:06;11.20;87.00
53645;DHT22;39547;45.554;12.068;2024-02-26T15:06:08;11.10;87.50
53645;DHT22;39547;45.554;12.068;2024-02-26T15:12:10;11.00;88.00
53645;DHT22;39547;45.554;12.068;2024-02-26T15:18:12;11.00;88.30
53645;DHT22;39547;45.554;12.068;2024-02-26T15:24:17;10.90;88.70
53645;DHT22;39547;45.554;12.068;2024-02-26T15:30:18;10.70;88.70
53645;DHT22;39547;45.554;12.068;2024-02-26T15:36:20;10.60;88.90
53645;DHT22;39547;45.554;12.068;2024-02-26T15:42:22;10.50;89.00
53645;DHT22;39547;45.554;12.068;2024-02-26T15:48:24;10.40;89.30
53645;DHT22;39547;45.554;12.068;2024-02-26T15:54:25;10.30;89.70
53645;DHT22;39547;45.554;12.068;2024-02-26T16:00:29;10.20;89.90
53645;DHT22;39547;45.554;12.068;2024-02-26T16:06:38;10.20;90.10
53645;DHT22;39547;45.554;12.068;2024-02-26T16:12:50;10.20;90.40
53645;DHT22;39547;45.554;12.068;2024-02-26T16:19:04;10.00;90.60
53645;DHT22;39547;45.554;12.068;2024-02-26T16:25:06;10.00;90.80
53645;DHT22;39547;45.554;12.068;2024-02-26T16:31:08;9.90;90.90
53645;DHT22;39547;45.554;12.068;2024-02-26T16:37:11;9.90;91.20
53645;DHT22;39547;45.554;12.068;2024-02-26T16:43:13;9.90;91.40
53645;DHT22;39547;45.554;12.068;2024-02-26T16:49:14;9.80;91.50
53645;DHT22;39547;45.554;12.068;2024-02-26T16:55:16;9.80;91.60
53645;DHT22;39547;45.554;12.068;2024-02-26T17:01:17;9.80;91.80
53645;DHT22;39547;45.554;12.068;2024-02-26T17:07:19;9.80;91.80
53645;DHT22;39547;45.554;12.068;2024-02-26T17:13:20;9.70;91.80
53645;DHT22;39547;45.554;12.068;2024-02-26T17:19:24;9.70;91.80
53645;DHT22;39547;45.554;12.068;2024-02-26T17:25:26;9.70;92.00
53645;DHT22;39547;45.554;12.068;2024-02-26T17:31:27;9.70;92.10
53645;DHT22;39547;45.554;12.068;2024-02-26T17:37:31;9.70;92.20
53645;DHT22;39547;45.554;12.068;2024-02-26T17:43:32;9.70;92.30
53645;DHT22;39547;45.554;12.068;2024-02-26T17:49:34;9.70;92.30
53645;DHT22;39547;45.554;12.068;2024-02-26T17:55:38;9.60;92.40
53645;DHT22;39547;45.554;12.068;2024-02-26T18:01:39;9.50;92.40
53645;DHT22;39547;45.554;12.068;2024-02-26T18:07:41;9.50;92.40
53645;DHT22;39547;45.554;12.068;2024-02-26T18:13:44;9.50;92.50
53645;DHT22;39547;45.554;12.068;2024-02-26T18:19:47;9.40;92.50
53645;DHT22;39547;45.554;12.068;2024-02-26T18:25:48;9.40;92.50
53645;DHT22;39547;45.554;12.068;2024-02-26T18:31:51;9.30;92.70
53645;DHT22;39547;45.554;12.068;2024-02-26T18:37:53;9.30;92.70
53645;DHT22;39547;45.554;12.068;2024-02-26T18:43:54;9.30;92.70
53645;DHT22;39547;45.554;12.068;2024-02-26T18:49:56;9.30;92.70
53645;DHT22;39547;45.554;12.068;2024-02-26T18:55:59;9.20;92.70
53645;DHT22;39547;45.554;12.068;2024-02-26T19:02:01;9.30;92.80
53645;DHT22;39547;45.554;12.068;2024-02-26T19:08:04;9.20;92.70
53645;DHT22;39547;45.554;12.068;2024-02-26T19:14:05;9.20;92.80
53645;DHT22;39547;45.554;12.068;2024-02-26T19:20:10;9.20;92.80
53645;DHT22;39547;45.554;12.068;2024-02-26T19:26:12;9.10;92.80
53645;DHT22;39547;45.554;12.068;2024-02-26T19:32:14;9.00;92.50
53645;DHT22;39547;45.554;12.068;2024-02-26T19:38:16;9.00;92.70
53645;DHT22;39547;45.554;12.068;2024-02-26T19:44:20;9.00;92.70
53645;DHT22;39547;45.554;12.068;2024-02-26T19:50:22;8.90;92.70
53645;DHT22;39547;45.554;12.068;2024-02-26T19:56:23;8.90;92.70
53645;DHT22;39547;45.554;12.068;2024-02-26T20:02:26;8.90;92.70
53645;DHT22;39547;45.554;12.068;2024-02-26T20:08:28;8.90;92.60
53645;DHT22;39547;45.554;12.068;2024-02-26T20:14:30;8.80;92.70
53645;DHT22;39547;45.554;12.068;2024-02-26T20:20:34;8.80;92.70
53645;DHT22;39547;45.554;12.068;2024-02-26T20:26:37;8.80;92.70
53645;DHT22;39547;45.554;12.068;2024-02-26T20:32:39;8.80;92.70
53645;DHT22;39547;45.554;12.068;2024-02-26T20:38:41;8.80;92.60
53645;DHT22;39547;45.554;12.068;2024-02-26T20:44:43;8.80;92.70
53645;DHT22;39547;45.554;12.068;2024-02-26T20:50:45;8.70;92.70
53645;DHT22;39547;45.554;12.068;2024-02-26T20:56:47;8.80;92.50
53645;DHT22;39547;45.554;12.068;2024-02-26T21:02:50;8.70;92.40
53645;DHT22;39547;45.554;12.068;2024-02-26T21:08:52;8.70;92.50
53645;DHT22;39547;45.554;12.068;2024-02-26T21:14:55;8.70;92.40
53645;DHT22;39547;45.554;12.068;2024-02-26T21:20:57;8.80;92.50
53645;DHT22;39547;45.554;12.068;2024-02-26T21:26:59;8.80;92.60
53645;DHT22;39547;45.554;12.068;2024-02-26T21:33:00;8.80;92.30
53645;DHT22;39547;45.554;12.068;2024-02-26T21:39:02;8.80;92.10
53645;DHT22;39547;45.554;12.068;2024-02-26T21:45:04;8.80;92.40
53645;DHT22;39547;45.554;12.068;2024-02-26T21:51:06;8.80;92.30
53645;DHT22;39547;45.554;12.068;2024-02-26T21:57:07;8.80;92.30
53645;DHT22;39547;45.554;12.068;2024-02-26T22:03:09;8.80;92.20
53645;DHT22;39547;45.554;12.068;2024-02-26T22:09:11;8.90;92.40
53645;DHT22;39547;45.554;12.068;2024-02-26T22:15:12;8.90;92.20
53645;DHT22;39547;45.554;12.068;2024-02-26T22:21:14;9.00;92.30
53645;DHT22;39547;45.554;12.068;2024-02-26T22:27:16;9.00;92.40
53645;DHT22;39547;45.554;12.068;2024-02-26T22:33:17;9.10;92.40
53645;DHT22;39547;45.554;12.068;2024-02-26T22:39:20;9.10;92.50
53645;DHT22;39547;45.554;12.068;2024-02-26T22:45:22;9.20;92.70
53645;DHT22;39547;45.554;12.068;2024-02-26T22:51:25;9.20;92.60
53645;DHT22;39547;45.554;12.068;2024-02-26T22:57:27;9.20;92.00
53645;DHT22;39547;45.554;12.068;2024-02-26T23:03:28;9.20;92.30
53645;DHT22;39547;45.554;12.068;2024-02-26T23:09:30;9.20;92.30
53645;DHT22;39547;45.554;12.068;2024-02-26T23:15:31;9.20;91.80
53645;DHT22;39547;45.554;12.068;2024-02-26T23:21:33;9.20;92.00
53645;DHT22;39547;45.554;12.068;2024-02-26T23:27:35;9.20;92.20
53645;DHT22;39547;45.554;12.068;2024-02-26T23:33:36;9.20;92.20
53645;DHT22;39547;45.554;12.068;2024-02-26T23:39:38;9.20;92.10
53645;DHT22;39547;45.554;12.068;2024-02-26T23:45:40;9.20;92.10
53645;DHT22;39547;45.554;12.068;2024-02-26T23:51:42;9.20;92.10
53645;DHT22;39547;45.554;12.068;2024-02-26T23:57:43;9.20;91.90
